createdAt,value
2022-11-16T00:01:17.423Z,99014.13
2022-11-16T00:03:45.731Z,99060.44
2022-11-16T00:06:15.730Z,98988.72
2022-11-16T00:08:45.524Z,99047.59
2022-11-16T00:11:16.051Z,99051.31
2022-11-16T00:13:46.165Z,98985.41
2022-11-16T00:16:16.946Z,99047.09
2022-11-16T00:18:45.402Z,99045.41
2022-11-16T00:21:13.141Z,99041.91
2022-11-16T00:23:41.026Z,99022.28
2022-11-16T00:26:11.205Z,99034.69
2022-11-16T00:28:39.021Z,99046.38
2022-11-16T00:31:08.937Z,99010.59
2022-11-16T00:33:37.159Z,98972.47
2022-11-16T00:36:06.477Z,99040.38
2022-11-16T00:38:34.910Z,99034.16
2022-11-16T00:41:03.060Z,99034.25
2022-11-16T00:43:30.901Z,99037.56
2022-11-16T00:45:58.659Z,99028.84
2022-11-16T00:48:27.810Z,99032.16
2022-11-16T00:50:55.787Z,99026.25
2022-11-16T00:53:24.052Z,99022.63
2022-11-16T00:55:51.942Z,99005.69
2022-11-16T00:58:21.265Z,99025.75
2022-11-16T01:00:55.427Z,99024.94
2022-11-16T01:03:25.200Z,99025.88
2022-11-16T01:05:54.363Z,99009.31
2022-11-16T01:08:22.141Z,98886.84
2022-11-16T01:10:50.043Z,99025.22
2022-11-16T01:13:16.886Z,99030.28
2022-11-16T01:15:48.547Z,99031.13
2022-11-16T01:18:16.379Z,98860.78
2022-11-16T01:20:44.156Z,99031.22
2022-11-16T01:23:13.283Z,98846.06
2022-11-16T01:25:41.058Z,98926.34
2022-11-16T01:28:09.221Z,98861.84
2022-11-16T01:30:49.368Z,99018.06
2022-11-16T01:33:17.506Z,99022.19
2022-11-16T01:35:45.423Z,99018.66
2022-11-16T01:38:17.414Z,99009.56
2022-11-16T01:40:45.945Z,99033.50
2022-11-16T01:43:17.622Z,99015.41
2022-11-16T01:45:47.046Z,98970.75
2022-11-16T01:48:21.323Z,99024.28
2022-11-16T01:50:50.862Z,99022.63
2022-11-16T01:53:20.855Z,99015.78
2022-11-16T01:55:53.393Z,99017.56
2022-11-16T01:58:33.852Z,99016.75
2022-11-16T02:01:19.134Z,98993.88
2022-11-16T02:03:54.061Z,99016.88
2022-11-16T02:06:47.412Z,99021.19
2022-11-16T02:09:54.901Z,99011.88
2022-11-16T02:13:01.292Z,99012.00
2022-11-16T02:15:47.260Z,99011.88
2022-11-16T02:18:31.526Z,99011.59
2022-11-16T02:21:09.156Z,99014.69
2022-11-16T02:24:07.437Z,99018.00
2022-11-16T02:27:03.515Z,99014.47
2022-11-16T02:29:36.855Z,99013.66
2022-11-16T02:32:11.908Z,99010.16
2022-11-16T02:34:43.764Z,99010.16
2022-11-16T02:37:15.761Z,99000.63
2022-11-16T02:39:47.312Z,99015.19
2022-11-16T02:42:20.213Z,99006.59
2022-11-16T02:44:52.561Z,99001.44
2022-11-16T02:47:24.106Z,98946.66
2022-11-16T02:49:57.210Z,98952.13
2022-11-16T02:52:28.266Z,98990.88
2022-11-16T02:54:56.589Z,98995.00
2022-11-16T02:57:41.274Z,98982.16
2022-11-16T03:00:21.098Z,98978.88
2022-11-16T03:03:04.047Z,98989.22
2022-11-16T03:05:36.442Z,98903.06
2022-11-16T03:08:27.459Z,98978.06
2022-11-16T03:11:17.554Z,98969.44
2022-11-16T03:13:46.150Z,98971.31
2022-11-16T03:16:19.930Z,98963.66
2022-11-16T03:18:48.649Z,98928.94
2022-11-16T03:21:26.320Z,98941.31
2022-11-16T03:23:54.567Z,98950.13
2022-11-16T03:26:27.693Z,98957.34
2022-11-16T03:29:00.541Z,98970.19
2022-11-16T03:31:38.965Z,98991.94
2022-11-16T03:34:13.268Z,98989.88
2022-11-16T03:36:44.503Z,98991.53
2022-11-16T03:39:17.654Z,98937.34
2022-11-16T03:41:49.216Z,98957.75
2022-11-16T03:44:20.175Z,98997.66
2022-11-16T03:46:49.467Z,98998.47
2022-11-16T03:49:22.021Z,98995.06
2022-11-16T03:51:50.682Z,98997.66
2022-11-16T03:54:18.829Z,98832.97
2022-11-16T03:56:46.783Z,98993.50
2022-11-16T03:59:14.593Z,98991.00
2022-11-16T04:01:44.911Z,99004.69
2022-11-16T04:04:29.504Z,98889.63
2022-11-16T04:07:15.674Z,98997.03
2022-11-16T04:10:00.930Z,99009.25
2022-11-16T04:12:46.261Z,99008.53
2022-11-16T04:15:31.570Z,99012.88
2022-11-16T04:18:17.523Z,99010.28
2022-11-16T04:21:04.141Z,99011.09
2022-11-16T04:23:50.242Z,99016.19
2022-11-16T04:26:18.922Z,99004.06
2022-11-16T04:28:46.813Z,99009.25
2022-11-16T04:31:33.055Z,99009.25
2022-11-16T04:34:37.323Z,99011.63
2022-11-16T04:37:24.381Z,99019.06
2022-11-16T04:39:52.157Z,99005.13
2022-11-16T04:42:22.278Z,99019.16
2022-11-16T04:45:10.101Z,99029.41
2022-11-16T04:47:46.545Z,99026.81
2022-11-16T04:50:14.938Z,99031.28
2022-11-16T04:52:44.985Z,99024.78
2022-11-16T04:55:14.837Z,99031.28
2022-11-16T04:57:44.824Z,99039.84
2022-11-16T05:00:14.774Z,99034.59
2022-11-16T05:02:42.671Z,99015.78
2022-11-16T05:05:11.279Z,99037.78
2022-11-16T05:07:42.255Z,99034.25
2022-11-16T05:10:21.225Z,99046.28
2022-11-16T05:12:50.511Z,99038.59
2022-11-16T05:15:19.724Z,99038.50
2022-11-16T05:17:48.507Z,99035.06
2022-11-16T05:20:37.963Z,99027.75
2022-11-16T05:23:26.452Z,99034.03
2022-11-16T05:25:55.348Z,99039.31
2022-11-16T05:28:23.738Z,99039.41
2022-11-16T05:30:52.450Z,99000.09
2022-11-16T05:33:23.751Z,99037.47
2022-11-16T05:35:52.861Z,99034.97
2022-11-16T05:38:22.061Z,99043.78
2022-11-16T05:40:53.908Z,98998.00
2022-11-16T05:43:23.328Z,99045.47
2022-11-16T05:45:59.934Z,99047.75
2022-11-16T05:48:27.826Z,98851.16
2022-11-16T05:50:59.475Z,98817.00
2022-11-16T05:53:29.355Z,98864.75
2022-11-16T05:55:58.859Z,98978.00
2022-11-16T05:58:28.705Z,99048.19
2022-11-16T06:00:58.807Z,98973.41
2022-11-16T06:03:29.263Z,99053.53
2022-11-16T06:05:58.013Z,98907.13
2022-11-16T06:08:28.194Z,98973.41
2022-11-16T06:11:02.986Z,99068.19
2022-11-16T06:13:33.044Z,98785.66
2022-11-16T06:16:03.072Z,98938.69
2022-11-16T06:18:33.154Z,98920.09
2022-11-16T06:21:02.375Z,98991.00
2022-11-16T06:23:30.353Z,98952.59
2022-11-16T06:25:59.020Z,99032.44
2022-11-16T06:28:29.554Z,98921.69
2022-11-16T06:30:59.362Z,99056.03
2022-11-16T06:33:33.352Z,99119.50
2022-11-16T06:36:04.591Z,99115.81
2022-11-16T06:38:33.540Z,98962.50
2022-11-16T06:41:02.228Z,98997.75
2022-11-16T06:43:33.142Z,98925.63
2022-11-16T06:46:03.479Z,98842.84
2022-11-16T06:51:42.747Z,98684.53
2022-11-16T06:54:10.773Z,99131.16
2022-11-16T06:56:38.644Z,98841.22
2022-11-16T06:59:07.858Z,99136.59
2022-11-16T07:01:37.598Z,99132.16
2022-11-16T07:04:12.047Z,99139.91
2022-11-16T07:06:44.363Z,99132.84
2022-11-16T07:09:16.179Z,99110.25
2022-11-16T07:11:45.002Z,99149.75
2022-11-16T07:14:14.784Z,99162.09
2022-11-16T07:16:45.732Z,99149.13
2022-11-16T07:19:14.191Z,98816.63
2022-11-16T07:21:43.595Z,99157.34
2022-11-16T07:24:16.240Z,98869.56
2022-11-16T07:26:44.154Z,98886.84
2022-11-16T07:29:17.690Z,98766.94
2022-11-16T07:32:06.327Z,99076.34
2022-11-16T07:34:59.227Z,99066.50
2022-11-16T07:37:27.915Z,99180.44
2022-11-16T07:39:56.405Z,99000.06
2022-11-16T07:42:26.096Z,98856.41
2022-11-16T07:45:23.473Z,99030.91
2022-11-16T07:47:59.083Z,99198.09
2022-11-16T07:50:45.883Z,98902.22
2022-11-16T07:53:13.903Z,98740.97
2022-11-16T07:55:42.052Z,98753.28
2022-11-16T07:58:10.948Z,99019.19
2022-11-16T08:00:39.573Z,98911.13
2022-11-16T08:03:21.807Z,99183.31
2022-11-16T08:05:59.666Z,99205.63
2022-11-16T08:08:27.689Z,99223.78
2022-11-16T08:11:00.861Z,99225.91
2022-11-16T08:13:31.839Z,99164.41
2022-11-16T08:16:01.950Z,99233.00
2022-11-16T08:18:31.615Z,99238.00
2022-11-16T08:21:00.500Z,99236.63
2022-11-16T08:23:30.458Z,99166.44
2022-11-16T08:25:59.945Z,99234.06
2022-11-16T08:28:29.296Z,99237.91
2022-11-16T08:30:58.273Z,99224.72
2022-11-16T08:33:26.859Z,99242.88
2022-11-16T08:35:58.725Z,99180.44
2022-11-16T08:38:26.780Z,98955.41
2022-11-16T08:40:56.518Z,98843.59
2022-11-16T08:43:26.535Z,99075.88
2022-11-16T08:45:54.675Z,99250.13
2022-11-16T08:48:23.266Z,99202.72
2022-11-16T08:51:16.034Z,98906.44
2022-11-16T08:53:43.913Z,98971.94
2022-11-16T08:56:13.665Z,98784.41
2022-11-16T08:58:44.376Z,99252.34
2022-11-16T09:01:16.356Z,98956.34
2022-11-16T09:03:45.194Z,99088.78
2022-11-16T09:06:14.224Z,99237.66
2022-11-16T09:08:45.080Z,98890.34
2022-11-16T09:11:16.768Z,99126.84
2022-11-16T09:13:44.767Z,99029.00
2022-11-16T09:16:15.806Z,99241.16
2022-11-16T09:18:44.223Z,99245.44
2022-11-16T09:21:11.995Z,99221.78
2022-11-16T09:23:39.761Z,99250.69
2022-11-16T09:26:09.046Z,99250.00
2022-11-16T09:28:37.153Z,99086.88
2022-11-16T09:31:06.068Z,99106.06
2022-11-16T09:33:35.185Z,99192.13
2022-11-16T09:36:06.826Z,99123.31
2022-11-16T09:38:55.739Z,99258.19
2022-11-16T09:41:41.632Z,99065.66
2022-11-16T09:44:18.595Z,99123.72
2022-11-16T09:46:48.932Z,99255.72
2022-11-16T09:49:21.607Z,99259.63
2022-11-16T09:51:54.220Z,99260.84
2022-11-16T09:54:25.451Z,99257.25
2022-11-16T09:56:58.119Z,99255.81
2022-11-16T09:59:29.852Z,99178.16
2022-11-16T10:02:02.262Z,99228.53
2022-11-16T10:04:39.395Z,99244.94
2022-11-16T10:07:14.040Z,99254.91
2022-11-16T10:09:42.485Z,99237.13
2022-11-16T10:12:18.087Z,99243.59
2022-11-16T10:15:31.891Z,99146.88
2022-11-16T10:18:12.288Z,99234.31
2022-11-16T10:21:04.352Z,99239.00
2022-11-16T10:23:50.101Z,99217.50
2022-11-16T10:26:28.482Z,99204.09
2022-11-16T10:29:19.715Z,99216.69
2022-11-16T10:32:02.349Z,99220.41
2022-11-16T10:34:38.708Z,99124.72
2022-11-16T10:37:08.499Z,99044.91
2022-11-16T10:39:40.842Z,99220.75
2022-11-16T10:42:12.817Z,99212.09
2022-11-16T10:44:45.283Z,99041.00
2022-11-16T10:47:21.835Z,99217.56
2022-11-16T10:49:57.068Z,99207.19
2022-11-16T10:52:25.098Z,99206.69
2022-11-16T10:54:53.637Z,99170.28
2022-11-16T10:57:23.727Z,99166.31
2022-11-16T10:59:55.739Z,99202.03
2022-11-16T11:02:35.896Z,98902.75
2022-11-16T11:05:15.504Z,99178.88
2022-11-16T11:07:46.751Z,99048.19
2022-11-16T11:10:29.592Z,99146.31
2022-11-16T11:13:22.043Z,99143.81
2022-11-16T11:15:51.409Z,99082.44
2022-11-16T11:18:26.840Z,99150.13
2022-11-16T11:21:07.861Z,99091.22
2022-11-16T11:23:43.438Z,99117.97
2022-11-16T11:26:36.168Z,99171.97
2022-11-16T11:29:16.740Z,99057.03
2022-11-16T11:31:48.449Z,99072.56
2022-11-16T11:34:21.429Z,99169.94
2022-11-16T11:36:53.743Z,99131.66
2022-11-16T11:39:33.863Z,99024.25
2022-11-16T11:42:05.319Z,98901.81
2022-11-16T11:44:39.574Z,99115.06
2022-11-16T11:50:17.645Z,99152.38
2022-11-16T11:52:58.514Z,99140.38
2022-11-16T11:55:26.960Z,99149.41
2022-11-16T11:57:57.322Z,99132.06
2022-11-16T12:00:26.047Z,99132.44
2022-11-16T12:03:22.042Z,99134.41
2022-11-16T12:06:11.467Z,99133.56
2022-11-16T12:08:51.601Z,99142.09
2022-11-16T12:11:27.364Z,99134.28
2022-11-16T12:14:14.402Z,99077.13
2022-11-16T12:16:50.785Z,98655.22
2022-11-16T12:19:44.459Z,99112.25
2022-11-16T12:22:30.154Z,99105.91
2022-11-16T12:25:16.443Z,99107.81
2022-11-16T12:27:51.429Z,99130.97
2022-11-16T12:30:21.856Z,99081.09
2022-11-16T12:33:11.546Z,99114.34
2022-11-16T12:35:51.763Z,99124.47
2022-11-16T12:38:30.130Z,99108.41
2022-11-16T12:41:11.858Z,99044.66
2022-11-16T12:43:50.079Z,99109.53
2022-11-16T12:46:28.295Z,99110.97
2022-11-16T12:49:26.400Z,99091.25
2022-11-16T12:52:09.936Z,99094.81
2022-11-16T12:55:24.749Z,99083.50
2022-11-16T12:57:58.198Z,99103.88
2022-11-16T13:00:27.982Z,99050.47
2022-11-16T13:03:12.653Z,99094.66
2022-11-16T13:05:57.035Z,98786.19
2022-11-16T13:08:37.003Z,99101.09
2022-11-16T13:11:12.488Z,98938.13
2022-11-16T13:13:42.039Z,99094.38
2022-11-16T13:16:11.504Z,98826.84
2022-11-16T13:18:42.506Z,99092.56
2022-11-16T13:21:21.060Z,99090.75
2022-11-16T13:24:01.959Z,98958.00
2022-11-16T13:26:36.491Z,99105.16
2022-11-16T13:29:15.685Z,99086.56
2022-11-16T13:31:50.237Z,99076.91
2022-11-16T13:34:24.426Z,99076.66
2022-11-16T13:36:52.186Z,99065.19
2022-11-16T13:39:42.080Z,98823.94
2022-11-16T13:42:14.271Z,98777.59
2022-11-16T13:44:44.255Z,99070.41
2022-11-16T13:47:22.986Z,98938.50
2022-11-16T13:49:53.330Z,99029.97
2022-11-16T13:52:24.991Z,99066.88
2022-11-16T13:55:16.029Z,99063.84
2022-11-16T13:57:51.977Z,99014.13
2022-11-16T14:00:24.288Z,99070.81
2022-11-16T14:03:26.799Z,99066.19
2022-11-16T14:05:54.716Z,99042.16
2022-11-16T14:08:48.469Z,99060.66
2022-11-16T14:11:33.006Z,98963.41
2022-11-16T14:14:05.506Z,99058.41
2022-11-16T14:16:54.489Z,99059.72
2022-11-16T14:19:52.858Z,99059.50
2022-11-16T14:22:39.619Z,98945.34
2022-11-16T14:25:18.579Z,98945.13
2022-11-16T14:27:56.489Z,99041.34
2022-11-16T14:30:28.529Z,99053.13
2022-11-16T14:32:58.349Z,99047.94
2022-11-16T14:35:33.755Z,99050.88
2022-11-16T14:38:04.670Z,99022.00
2022-11-16T14:40:35.470Z,99054.91
2022-11-16T14:43:16.829Z,98918.00
2022-11-16T14:45:49.119Z,98957.47
2022-11-16T14:48:19.033Z,99004.06
2022-11-16T14:50:58.389Z,99035.22
2022-11-16T14:53:28.088Z,98943.69
2022-11-16T14:56:07.429Z,99058.09
2022-11-16T14:58:37.112Z,98998.38
2022-11-16T15:01:08.336Z,99042.88
2022-11-16T15:03:41.240Z,98818.44
2022-11-16T15:06:09.525Z,98942.97
2022-11-16T15:08:44.206Z,99037.09
2022-11-16T15:11:23.463Z,99002.50
2022-11-16T15:13:52.990Z,98932.66
2022-11-16T15:16:21.569Z,98887.13
2022-11-16T15:19:03.120Z,99022.97
2022-11-16T15:21:30.958Z,99013.53
2022-11-16T15:26:46.812Z,99014.59
2022-11-16T15:29:18.936Z,99020.53
2022-11-16T15:31:47.783Z,98902.34
2022-11-16T15:34:18.410Z,98931.59
2022-11-16T15:36:47.524Z,98956.34
2022-11-16T15:39:19.616Z,99000.25
2022-11-16T15:41:47.827Z,99005.47
2022-11-16T15:44:20.157Z,98955.31
2022-11-16T15:46:50.390Z,98879.22
2022-11-16T15:49:34.678Z,98963.94
2022-11-16T15:52:03.090Z,98793.19
2022-11-16T15:54:54.442Z,98858.50
2022-11-16T15:57:24.604Z,98885.31
2022-11-16T15:59:55.997Z,98902.06
2022-11-16T16:02:27.401Z,98990.38
2022-11-16T16:04:55.321Z,98897.00
2022-11-16T16:07:40.279Z,98908.47
2022-11-16T16:10:25.154Z,98872.56
2022-11-16T16:12:54.721Z,98880.91
2022-11-16T16:15:26.233Z,98939.19
2022-11-16T16:17:55.562Z,98968.88
2022-11-16T16:20:25.966Z,98931.19
2022-11-16T16:22:54.544Z,98729.91
2022-11-16T16:25:28.663Z,98978.78
2022-11-16T16:27:58.269Z,98975.97
2022-11-16T16:30:30.424Z,98868.00
2022-11-16T16:32:58.561Z,98838.53
2022-11-16T16:35:28.470Z,98850.88
2022-11-16T16:37:59.595Z,98958.44
2022-11-16T16:40:29.399Z,98800.78
2022-11-16T16:42:57.974Z,98993.84
2022-11-16T16:45:37.260Z,98889.59
2022-11-16T16:48:05.892Z,98985.53
2022-11-16T16:50:33.864Z,98810.13
2022-11-16T16:53:02.373Z,98845.47
2022-11-16T16:55:36.722Z,98728.59
2022-11-16T16:58:06.503Z,98664.09
2022-11-16T17:00:37.222Z,98815.53
2022-11-16T17:03:06.692Z,98718.28
2022-11-16T17:05:36.495Z,98642.38
2022-11-16T17:08:05.617Z,98650.59
2022-11-16T17:10:34.494Z,98733.28
2022-11-16T17:13:03.941Z,98651.25
2022-11-16T17:15:32.153Z,98948.25
2022-11-16T17:18:01.844Z,98780.75
2022-11-16T17:20:29.824Z,98949.97
2022-11-16T17:22:58.025Z,98934.00
2022-11-16T17:25:26.280Z,98762.84
2022-11-16T17:27:54.375Z,98699.19
2022-11-16T17:30:22.536Z,98741.91
2022-11-16T17:32:50.653Z,98725.66
2022-11-16T17:35:20.123Z,98873.81
2022-11-16T17:37:48.261Z,98929.56
2022-11-16T17:40:17.127Z,98850.13
2022-11-16T17:42:45.873Z,98610.03
2022-11-16T17:45:14.224Z,98881.38
2022-11-16T17:47:42.670Z,98811.69
2022-11-16T17:50:11.597Z,98860.75
2022-11-16T17:52:41.625Z,98946.25
2022-11-16T17:55:10.123Z,98933.75
2022-11-16T17:57:37.983Z,98892.06
2022-11-16T18:00:07.490Z,98875.09
2022-11-16T18:02:37.171Z,98748.69
2022-11-16T18:05:08.029Z,98794.31
2022-11-16T18:07:43.466Z,98609.47
2022-11-16T18:10:18.891Z,98860.84
2022-11-16T18:12:47.621Z,98878.88
2022-11-16T18:15:28.342Z,98892.81
2022-11-16T18:17:58.142Z,98753.91
2022-11-16T18:20:30.612Z,98622.56
2022-11-16T18:23:01.659Z,98629.41
2022-11-16T18:25:33.305Z,98700.59
2022-11-16T18:28:01.563Z,98886.50
2022-11-16T18:33:40.483Z,98786.13
2022-11-16T18:36:13.783Z,98663.72
2022-11-16T18:45:05.324Z,98755.31
2022-11-16T18:47:39.679Z,98766.66
2022-11-16T18:50:18.947Z,98731.81
2022-11-16T18:52:49.582Z,98645.41
2022-11-16T18:55:18.937Z,98900.25
2022-11-16T18:57:50.188Z,98670.06
2022-11-16T19:00:21.346Z,98819.91
2022-11-16T19:02:49.840Z,98595.06
2022-11-16T19:05:18.136Z,98677.16
2022-11-16T19:07:49.546Z,98826.75
2022-11-16T19:10:18.397Z,98782.78
2022-11-16T19:12:47.391Z,98609.69
2022-11-16T19:15:16.051Z,98815.59
2022-11-16T19:18:19.920Z,98869.69
2022-11-16T19:20:47.507Z,98866.94
2022-11-16T19:23:16.519Z,98859.06
2022-11-16T19:25:45.502Z,98682.22
2022-11-16T19:28:13.447Z,98620.13
2022-11-16T19:30:41.720Z,98618.34
2022-11-16T19:33:11.810Z,98521.63
2022-11-16T19:35:40.367Z,98861.56
2022-11-16T19:38:08.439Z,98492.00
2022-11-16T19:40:38.042Z,98847.44
2022-11-16T19:43:06.206Z,98802.59
2022-11-16T19:45:34.129Z,98793.31
2022-11-16T19:48:02.038Z,98856.06
2022-11-16T19:50:31.263Z,98856.69
2022-11-16T19:52:59.323Z,98861.66
2022-11-16T19:55:27.445Z,98815.19
2022-11-16T19:57:55.253Z,98857.84
2022-11-16T20:00:23.334Z,98779.59
2022-11-16T20:02:55.965Z,98846.91
2022-11-16T20:05:24.158Z,98836.84
2022-11-16T20:07:53.579Z,98837.16
2022-11-16T20:10:21.416Z,98824.84
2022-11-16T20:12:49.647Z,98815.94
2022-11-16T20:15:17.610Z,98756.59
2022-11-16T20:17:45.418Z,98806.50
2022-11-16T20:20:13.241Z,98804.47
2022-11-16T20:22:41.356Z,98517.03
2022-11-16T20:25:11.232Z,98780.00
2022-11-16T20:27:38.985Z,98714.84
2022-11-16T20:30:09.880Z,98768.16
2022-11-16T20:32:38.049Z,98716.16
2022-11-16T20:35:06.329Z,98740.75
2022-11-16T20:37:34.480Z,98698.41
2022-11-16T20:40:02.466Z,98747.19
2022-11-16T20:42:32.541Z,98462.88
2022-11-16T20:45:04.663Z,98676.91
2022-11-16T20:47:34.264Z,98375.03
2022-11-16T20:50:05.457Z,98689.13
2022-11-16T20:52:38.208Z,98747.50
2022-11-16T20:55:11.870Z,98428.75
2022-11-16T20:57:46.139Z,98727.16
2022-11-16T21:00:20.919Z,98689.53
2022-11-16T21:02:53.064Z,98074.03
2022-11-16T21:05:24.647Z,98272.47
2022-11-16T21:07:55.489Z,98515.75
2022-11-16T21:10:24.153Z,98742.22
2022-11-16T21:13:17.610Z,98663.03
2022-11-16T21:16:00.488Z,98200.31
2022-11-16T21:18:41.291Z,98228.88
2022-11-16T21:21:13.113Z,98473.72
2022-11-16T21:23:52.407Z,98710.72
2022-11-16T21:26:31.758Z,98120.56
2022-11-16T21:29:16.559Z,98715.59
2022-11-16T21:31:49.737Z,98488.72
2022-11-16T21:34:39.766Z,98238.25
2022-11-16T21:37:15.635Z,98700.13
2022-11-16T21:39:49.932Z,98693.44
2022-11-16T21:42:20.386Z,98690.50
2022-11-16T21:44:57.775Z,98680.94
2022-11-16T21:47:26.174Z,98624.53
2022-11-16T21:50:24.811Z,98668.56
2022-11-16T21:52:42.866Z,98541.34
2022-11-16T21:55:12.133Z,98659.34
2022-11-16T21:57:40.169Z,98605.44
2022-11-16T22:00:11.643Z,98461.19
2022-11-16T22:02:39.967Z,98644.09
2022-11-16T22:05:27.599Z,98511.03
2022-11-16T22:07:55.869Z,98499.72
2022-11-16T22:10:23.826Z,98368.84
2022-11-16T22:12:51.737Z,98482.06
2022-11-16T22:15:21.357Z,98522.44
2022-11-16T22:17:49.352Z,98560.97
2022-11-16T22:20:18.195Z,98624.94
2022-11-16T22:22:46.167Z,98506.88
2022-11-16T22:25:14.264Z,98533.56
2022-11-16T22:28:13.451Z,98520.59
2022-11-16T22:30:31.684Z,98608.00
2022-11-16T22:32:59.659Z,98509.22
2022-11-16T22:35:27.633Z,98593.25
2022-11-16T22:37:55.945Z,98593.03
2022-11-16T22:40:24.001Z,98531.47
2022-11-16T22:42:53.382Z,98578.38
2022-11-16T22:45:21.229Z,98572.38
2022-11-16T22:47:54.743Z,98411.53
2022-11-16T22:50:24.028Z,98561.69
2022-11-16T22:52:51.819Z,98560.75
2022-11-16T22:55:19.642Z,98556.53
2022-11-16T22:57:47.566Z,98452.81
2022-11-16T23:00:16.066Z,98390.31
2022-11-16T23:02:44.094Z,98364.72
2022-11-16T23:05:13.760Z,98502.56
2022-11-16T23:07:43.843Z,98481.38
2022-11-16T23:10:12.087Z,98528.81
2022-11-16T23:12:57.606Z,98443.16
2022-11-16T23:15:48.726Z,98523.66
2022-11-16T23:18:17.200Z,98503.97
2022-11-16T23:21:04.337Z,98494.47
2022-11-16T23:23:50.078Z,98464.31
2022-11-16T23:26:48.908Z,98284.88
2022-11-16T23:29:16.816Z,98480.41
2022-11-16T23:31:45.259Z,98466.19
2022-11-16T23:34:13.127Z,98311.34
2022-11-16T23:36:43.135Z,98463.75
2022-11-16T23:39:11.244Z,98317.91
2022-11-16T23:41:56.504Z,98351.97
2022-11-16T23:44:24.477Z,98322.88
2022-11-16T23:46:52.400Z,98426.66
2022-11-16T23:49:20.370Z,98402.78
2022-11-16T23:51:49.566Z,98419.78
2022-11-16T23:54:17.452Z,98402.53
2022-11-16T23:56:45.314Z,98275.84
2022-11-16T23:59:13.236Z,98295.00
